Time;durP1;ratioP1;P1;durP2;ratioP2;P2;SDS_P1;SDS_P2;PMS_P1;PMS_P2;Temp;Humidity;BMP_temperature;BMP_pressure;BME280_temperature;BME280_humidity;BME280_pressure;Samples;Min_cycle;Max_cycle;Signal;HPM_P1;HPM_P2
2023/10/18 00:00:36;;;;;;;3.07;2.63;;;;;4.60;95608.00;;;;5075688;28;20199;-56
2023/10/18 00:03:06;;;;;;;2.03;1.80;;;;;4.60;95611.00;;;;5075386;28;20230;-57
2023/10/18 00:05:33;;;;;;;1.60;1.53;;;;;4.60;95608.00;;;;5076168;28;20579;-56
2023/10/18 00:08:03;;;;;;;2.93;2.73;;;;;4.40;95610.00;;;;5075563;28;20682;-57
2023/10/18 00:10:33;;;;;;;1.57;1.47;;;;;4.50;95604.00;;;;5075767;28;20226;-55
2023/10/18 00:13:00;;;;;;;3.20;2.90;;;;;4.50;95606.00;;;;5075363;28;20212;-55
2023/10/18 00:15:28;;;;;;;3.17;2.87;;;;;4.50;95604.00;;;;5075391;28;20195;-55
2023/10/18 00:17:56;;;;;;;3.80;2.53;;;;;4.40;95595.00;;;;5074086;28;20688;-55
2023/10/18 00:20:25;;;;;;;2.80;2.60;;;;;4.50;95607.00;;;;5075188;28;20245;-55
2023/10/18 00:22:53;;;;;;;4.63;2.47;;;;;4.50;95601.00;;;;5074624;28;20209;-58
2023/10/18 00:25:22;;;;;;;3.17;2.87;;;;;4.40;95603.00;;;;5075198;28;20191;-56
2023/10/18 00:27:50;;;;;;;3.33;2.23;;;;;4.40;95601.00;;;;5075289;28;20226;-57
2023/10/18 00:30:19;;;;;;;2.43;2.27;;;;;4.30;95605.00;;;;5075618;28;20203;-56
2023/10/18 00:32:46;;;;;;;3.53;3.23;;;;;4.40;95593.00;;;;5075081;28;20211;-56
2023/10/18 00:35:18;;;;;;;2.33;1.93;;;;;4.40;95591.00;;;;5075328;28;20535;-56
2023/10/18 00:37:46;;;;;;;2.07;1.97;;;;;4.40;95604.00;;;;5074974;28;20180;-56
2023/10/18 00:40:32;;;;;;;2.63;2.43;;;;;4.40;95595.00;;;;5074928;28;20192;-56
2023/10/18 00:43:07;;;;;;;2.60;2.40;;;;;4.40;95585.00;;;;5074948;28;20621;-56
2023/10/18 00:45:39;;;;;;;2.10;1.90;;;;;4.40;95582.00;;;;5075094;28;20187;-56
2023/10/18 00:48:08;;;;;;;1.33;1.30;;;;;4.40;95580.00;;;;5074714;28;20203;-56
2023/10/18 00:50:38;;;;;;;1.77;1.67;;;;;4.30;95578.00;;;;5074893;28;20226;-56
2023/10/18 00:53:06;;;;;;;2.03;1.93;;;;;4.40;95567.00;;;;5074571;28;20555;-56
2023/10/18 00:55:33;;;;;;;1.93;1.73;;;;;4.40;95568.00;;;;5074656;28;20546;-56
2023/10/18 00:58:05;;;;;;;3.50;3.17;;;;;4.40;95565.00;;;;5074763;28;20215;-56
2023/10/18 01:00:35;;;;;;;2.23;2.13;;;;;4.50;95566.00;;;;5075179;28;20623;-56
2023/10/18 01:03:06;;;;;;;2.43;2.23;;;;;4.50;95557.00;;;;5074486;28;20219;-55
2023/10/18 01:05:35;;;;;;;1.90;1.80;;;;;4.50;95555.00;;;;5074735;28;20636;-55
2023/10/18 01:08:06;;;;;;;2.60;2.40;;;;;4.20;95546.00;;;;5074925;28;20216;-55
2023/10/18 01:10:37;;;;;;;2.03;1.93;;;;;4.00;95544.00;;;;5073160;28;20184;-56
2023/10/18 01:13:09;;;;;;;1.97;1.83;;;;;4.00;95547.00;;;;5074383;28;20632;-56
2023/10/18 01:15:36;;;;;;;1.93;1.83;;;;;4.10;95540.00;;;;5074359;28;20184;-56
2023/10/18 01:18:05;;;;;;;2.93;2.63;;;;;4.10;95529.00;;;;5074701;28;20192;-57
2023/10/18 01:20:39;;;;;;;1.60;1.53;;;;;4.00;95530.00;;;;5072878;28;20199;-56
2023/10/18 01:23:09;;;;;;;4.07;1.97;;;;;4.00;95528.00;;;;5074300;28;20235;-58
2023/10/18 01:25:37;;;;;;;3.33;2.20;;;;;4.10;95525.00;;;;5074222;28;20240;-58
2023/10/18 01:28:06;;;;;;;1.83;1.73;;;;;4.10;95530.00;;;;5073969;28;20219;-56
2023/10/18 01:30:34;;;;;;;2.10;2.00;;;;;4.00;95523.00;;;;5074207;28;20597;-56
2023/10/18 01:33:04;;;;;;;1.93;1.83;;;;;3.80;95521.00;;;;5072296;28;20288;-56
2023/10/18 01:35:32;;;;;;;1.87;1.73;;;;;3.70;95515.00;;;;5074545;28;20175;-56
2023/10/18 01:38:04;;;;;;;3.17;1.87;;;;;3.80;95524.00;;;;5074151;28;20241;-56
2023/10/18 01:40:41;;;;;;;2.47;2.27;;;;;3.90;95522.00;;;;5074136;28;20258;-55
2023/10/18 01:43:11;;;;;;;1.90;1.80;;;;;3.90;95519.00;;;;5072431;28;20219;-56
2023/10/18 01:45:39;;;;;;;1.93;1.83;;;;;3.90;95523.00;;;;5073959;28;20298;-56
2023/10/18 01:48:09;;;;;;;2.17;2.07;;;;;4.00;95521.00;;;;5073489;28;20627;-56
2023/10/18 01:50:39;;;;;;;3.10;2.53;;;;;4.10;95515.00;;;;5073643;28;20187;-56
2023/10/18 01:53:15;;;;;;;1.33;1.30;;;;;4.20;95507.00;;;;5073669;28;20208;-56
2023/10/18 01:55:46;;;;;;;1.93;1.83;;;;;4.10;95507.00;;;;5073284;28;20525;-56
2023/10/18 01:58:15;;;;;;;2.27;2.17;;;;;4.00;95509.00;;;;5073387;28;20184;-56
2023/10/18 02:00:44;;;;;;;1.27;1.23;;;;;4.00;95511.00;;;;5073353;28;20662;-56
2023/10/18 02:03:12;;;;;;;2.07;1.97;;;;;3.90;95504.00;;;;5071871;28;20257;-56
2023/10/18 02:05:42;;;;;;;2.80;2.23;;;;;3.80;95503.00;;;;5073753;28;20200;-56
2023/10/18 02:08:11;;;;;;;2.17;2.07;;;;;3.70;95502.00;;;;5071905;28;20219;-56
2023/10/18 02:10:42;;;;;;;1.17;1.17;;;;;3.60;95507.00;;;;5073200;28;20203;-56
2023/10/18 02:13:11;;;;;;;1.53;1.43;;;;;3.50;95496.00;;;;5073364;28;20215;-56
2023/10/18 02:15:40;;;;;;;2.97;2.30;;;;;3.50;95498.00;;;;5073449;28;20607;-56
2023/10/18 02:18:08;;;;;;;1.63;1.53;;;;;3.50;95500.00;;;;5071852;28;20195;-55
2023/10/18 02:20:37;;;;;;;1.67;1.57;;;;;3.50;95496.00;;;;5073668;28;20257;-55
2023/10/18 02:23:11;;;;;;;1.77;1.67;;;;;3.40;95504.00;;;;5073211;28;20309;-55
2023/10/18 02:25:43;;;;;;;2.40;1.90;;;;;3.40;95495.00;;;;5073451;28;20586;-55
2023/10/18 02:28:23;;;;;;;2.63;2.43;;;;;3.50;95500.00;;;;5072972;28;20199;-55
2023/10/18 02:31:10;;;;;;;2.13;1.93;;;;;3.40;95511.00;;;;5073324;28;20183;-56
2023/10/18 02:33:38;;;;;;;3.00;1.63;;;;;3.50;95503.00;;;;5073575;28;20237;-58
2023/10/18 02:36:10;;;;;;;2.80;2.60;;;;;3.60;95502.00;;;;5073162;28;20195;-55
2023/10/18 02:38:39;;;;;;;1.93;1.83;;;;;3.60;95490.00;;;;5073379;28;20202;-55
2023/10/18 02:41:19;;;;;;;2.20;2.10;;;;;3.60;95472.00;;;;5073053;28;20542;-55
2023/10/18 02:43:48;;;;;;;1.63;1.53;;;;;3.70;95483.00;;;;5073513;28;20534;-55
2023/10/18 02:46:21;;;;;;;2.00;1.90;;;;;3.50;95484.00;;;;5077197;28;20607;-55
2023/10/18 02:48:50;;;;;;;0.80;0.80;;;;;3.20;95483.00;;;;5076986;28;20203;-55
2023/10/18 02:51:22;;;;;;;1.30;1.30;;;;;3.20;95480.00;;;;5076866;28;20725;-57
2023/10/18 02:53:51;;;;;;;1.50;1.40;;;;;3.20;95474.00;;;;5077492;28;20175;-56
2023/10/18 02:56:20;;;;;;;3.33;2.83;;;;;3.20;95465.00;;;;5076913;28;20274;-56
2023/10/18 02:58:48;;;;;;;1.20;1.20;;;;;3.30;95463.00;;;;5076870;28;20665;-56
2023/10/18 03:01:18;;;;;;;2.37;2.27;;;;;3.40;95465.00;;;;5075475;28;20214;-56
2023/10/18 03:03:49;;;;;;;2.33;2.23;;;;;3.40;95460.00;;;;5076843;28;20264;-56
2023/10/18 03:06:16;;;;;;;3.10;2.70;;;;;3.40;95458.00;;;;5077028;28;20215;-56
2023/10/18 03:08:49;;;;;;;1.73;1.63;;;;;3.50;95448.00;;;;5076739;28;20215;-56
2023/10/18 03:11:20;;;;;;;2.10;1.90;;;;;3.40;95463.00;;;;5077211;28;20211;-56
2023/10/18 03:13:48;;;;;;;2.97;2.67;;;;;3.40;95463.00;;;;5077070;28;20234;-56
2023/10/18 03:16:22;;;;;;;2.07;1.87;;;;;3.30;95463.00;;;;5076818;28;20681;-56
2023/10/18 03:18:49;;;;;;;3.23;2.20;;;;;3.20;95447.00;;;;5076536;28;20183;-56
2023/10/18 03:21:21;;;;;;;2.03;1.93;;;;;3.30;95465.00;;;;5076922;28;20211;-56
2023/10/18 03:23:51;;;;;;;1.17;1.17;;;;;3.30;95453.00;;;;5076901;28;20176;-56
2023/10/18 03:26:22;;;;;;;1.80;1.70;;;;;3.40;95451.00;;;;5076431;28;20195;-56
2023/10/18 03:28:50;;;;;;;2.50;2.30;;;;;3.50;95444.00;;;;5076463;28;20204;-56
2023/10/18 03:31:27;;;;;;;3.17;2.87;;;;;3.50;95441.00;;;;5076577;28;20223;-57
2023/10/18 03:33:59;;;;;;;1.70;1.63;;;;;3.50;95438.00;;;;5076451;28;20187;-56
2023/10/18 03:36:27;;;;;;;2.80;1.97;;;;;3.60;95432.00;;;;5076663;28;20267;-57
2023/10/18 03:38:54;;;;;;;1.50;1.40;;;;;3.60;95421.00;;;;5076352;28;20550;-57
2023/10/18 03:41:25;;;;;;;2.37;2.20;;;;;3.70;95429.00;;;;5076482;28;20294;-56
2023/10/18 03:44:03;;;;;;;1.57;1.47;;;;;3.50;95423.00;;;;5076046;28;20191;-56
2023/10/18 03:46:39;;;;;;;1.93;1.83;;;;;3.40;95421.00;;;;5076521;28;20188;-56
2023/10/18 03:49:10;;;;;;;2.10;1.80;;;;;3.50;95422.00;;;;5076187;28;20210;-56
2023/10/18 03:51:39;;;;;;;1.73;1.63;;;;;3.50;95411.00;;;;5076124;28;20566;-56
2023/10/18 03:54:09;;;;;;;1.80;1.70;;;;;3.40;95407.00;;;;5076495;28;20662;-56
2023/10/18 03:56:38;;;;;;;2.30;2.17;;;;;3.40;95410.00;;;;5075830;28;20550;-57
2023/10/18 03:59:19;;;;;;;1.53;1.43;;;;;3.30;95413.00;;;;5074504;28;20192;-56
2023/10/18 04:02:06;;;;;;;3.70;2.03;;;;;3.30;95401.00;;;;5074384;28;20215;-56
2023/10/18 04:04:35;;;;;;;1.80;1.70;;;;;3.10;95396.00;;;;5074542;28;20596;-56
2023/10/18 04:07:12;;;;;;;1.07;1.07;;;;;3.10;95408.00;;;;5075954;28;20203;-56
2023/10/18 04:09:46;;;;;;;2.73;2.00;;;;;3.20;95401.00;;;;5075900;28;20180;-56
2023/10/18 04:12:17;;;;;;;1.43;1.43;;;;;3.00;95397.00;;;;5075861;28;20645;-56
2023/10/18 04:14:52;;;;;;;2.37;1.90;;;;;3.10;95405.00;;;;5075631;28;20578;-56
2023/10/18 04:17:32;;;;;;;1.97;1.87;;;;;3.10;95392.00;;;;5075506;28;20586;-56
2023/10/18 04:20:01;;;;;;;2.17;2.07;;;;;3.20;95389.00;;;;5075909;28;20596;-56
2023/10/18 04:22:29;;;;;;;4.20;2.10;;;;;3.40;95387.00;;;;5075189;28;20217;-56
2023/10/18 04:24:57;;;;;;;1.73;1.63;;;;;3.70;95374.00;;;;5075772;28;20202;-57
2023/10/18 04:27:26;;;;;;;1.70;1.60;;;;;3.70;95371.00;;;;5075557;28;20309;-55
2023/10/18 04:29:55;;;;;;;3.10;2.50;;;;;3.80;95363.00;;;;5075097;28;20191;-55
2023/10/18 04:32:24;;;;;;;2.80;2.60;;;;;3.90;95356.00;;;;5074972;28;20621;-56
2023/10/18 04:34:52;;;;;;;1.30;1.30;;;;;3.80;95363.00;;;;5075551;28;20279;-56
2023/10/18 04:37:22;;;;;;;2.13;1.97;;;;;3.60;95373.00;;;;5075294;28;20195;-56
2023/10/18 04:39:50;;;;;;;3.47;1.80;;;;;3.40;95367.00;;;;5075138;28;20180;-56
2023/10/18 04:42:17;;;;;;;2.17;1.97;;;;;3.30;95352.00;;;;5074963;28;20286;-56
2023/10/18 04:44:49;;;;;;;2.20;2.00;;;;;3.40;95344.00;;;;5074974;28;20217;-56
2023/10/18 04:47:17;;;;;;;1.70;1.60;;;;;3.40;95358.00;;;;5075160;28;20566;-58
2023/10/18 04:50:00;;;;;;;2.87;2.10;;;;;3.40;95358.00;;;;5074781;28;20211;-56
2023/10/18 04:52:40;;;;;;;1.97;1.83;;;;;3.40;95353.00;;;;5074741;28;20760;-56
2023/10/18 04:55:11;;;;;;;2.47;2.27;;;;;3.40;95358.00;;;;5074800;28;20180;-56
2023/10/18 04:57:39;;;;;;;4.67;3.83;;;;;3.40;95315.00;;;;5074961;28;20593;-56
2023/10/18 05:00:35;;;;;;;4.03;3.63;;;;;3.40;95359.00;;;;5075226;28;20214;-56
2023/10/18 05:03:06;;;;;;;1.97;1.83;;;;;3.30;95358.00;;;;5074491;28;20595;-56
2023/10/18 05:05:44;;;;;;;1.87;1.77;;;;;3.30;95351.00;;;;5075281;28;20218;-57
2023/10/18 05:08:17;;;;;;;1.63;1.53;;;;;3.30;95366.00;;;;5072430;28;20259;-56
2023/10/18 05:10:45;;;;;;;5.27;2.77;;;;;3.30;95357.00;;;;5074366;28;20215;-56
2023/10/18 05:13:22;;;;;;;1.70;1.60;;;;;3.20;95351.00;;;;5074185;28;20306;-55
2023/10/18 05:16:04;;;;;;;1.93;1.83;;;;;3.20;95358.00;;;;5074416;28;20681;-56
2023/10/18 05:18:31;;;;;;;1.53;1.50;;;;;3.00;95353.00;;;;5074548;28;20233;-56
2023/10/18 05:21:06;;;;;;;2.37;1.67;;;;;3.00;95357.00;;;;5074028;28;20213;-56
2023/10/18 05:23:34;;;;;;;2.77;2.17;;;;;3.00;95354.00;;;;5074602;28;20187;-56
2023/10/18 05:26:08;;;;;;;1.90;1.77;;;;;3.10;95354.00;;;;5073860;28;20192;-55
2023/10/18 05:28:46;;;;;;;2.33;2.13;;;;;3.20;95354.00;;;;5074166;28;20209;-56
2023/10/18 05:34:18;;;;;;;1.87;1.77;;;;;3.40;95343.00;;;;5049312;28;20239;-56
2023/10/18 05:36:55;;;;;;;1.20;1.20;;;;;3.40;95342.00;;;;5074219;28;20179;-56
2023/10/18 05:39:28;;;;;;;3.13;1.83;;;;;3.40;95337.00;;;;5073791;28;20191;-56
2023/10/18 05:42:03;;;;;;;2.03;1.93;;;;;3.50;95340.00;;;;5074133;28;20215;-56
2023/10/18 05:44:31;;;;;;;2.03;1.93;;;;;3.40;95329.00;;;;5074039;28;20656;-56
2023/10/18 05:46:59;;;;;;;1.20;1.20;;;;;3.40;95332.00;;;;5073715;28;20560;-56
2023/10/18 05:49:28;;;;;;;2.20;2.10;;;;;3.30;95325.00;;;;5073480;28;20686;-56
2023/10/18 05:52:15;;;;;;;6.37;4.13;;;;;3.30;95328.00;;;;5073428;28;20208;-58
2023/10/18 05:54:44;;;;;;;2.07;1.73;;;;;3.20;95324.00;;;;5073548;28;20532;-56
2023/10/18 05:57:16;;;;;;;3.00;2.67;;;;;3.10;95320.00;;;;5073351;28;20731;-56
2023/10/18 05:59:46;;;;;;;1.57;1.57;;;;;3.10;95320.00;;;;5073474;28;20219;-56
2023/10/18 06:02:22;;;;;;;2.47;2.27;;;;;3.20;95324.00;;;;5073966;28;20231;-56
2023/10/18 06:04:51;;;;;;;3.20;3.00;;;;;3.20;95316.00;;;;5073470;28;20187;-56
2023/10/18 06:07:22;;;;;;;2.43;2.20;;;;;3.30;95322.00;;;;5073472;28;20226;-56
2023/10/18 06:09:55;;;;;;;2.40;2.07;;;;;3.40;95317.00;;;;5073728;28;20249;-56
2023/10/18 06:12:24;;;;;;;2.27;2.17;;;;;3.50;95305.00;;;;5073575;28;20302;-56
2023/10/18 06:14:52;;;;;;;1.80;1.70;;;;;3.60;95310.00;;;;5073398;28;20207;-56
2023/10/18 06:17:22;;;;;;;1.40;1.40;;;;;3.50;95312.00;;;;5070290;28;20203;-60
2023/10/18 06:19:51;;;;;;;1.37;1.37;;;;;3.60;95305.00;;;;5067728;28;20725;-58
2023/10/18 06:22:29;;;;;;;2.13;1.93;;;;;3.60;95309.00;;;;5071356;28;20215;-59
2023/10/18 06:24:57;;;;;;;1.77;1.60;;;;;3.70;95301.00;;;;5071233;28;20539;-59
2023/10/18 06:27:25;;;;;;;1.50;1.40;;;;;3.70;95304.00;;;;5071587;28;20195;-59
2023/10/18 06:29:53;;;;;;;1.83;1.73;;;;;3.70;95303.00;;;;5070877;28;20219;-60
2023/10/18 06:32:24;;;;;;;1.43;1.43;;;;;3.80;95315.00;;;;5071351;28;20302;-56
2023/10/18 06:34:57;;;;;;;1.00;1.00;;;;;3.90;95314.00;;;;5071116;28;20202;-56
2023/10/18 06:37:40;;;;;;;2.00;1.90;;;;;4.00;95301.00;;;;5070190;28;20215;-56
2023/10/18 06:40:21;;;;;;;1.43;1.37;;;;;4.10;95292.00;;;;5071056;28;20191;-56
2023/10/18 06:42:48;;;;;;;2.50;1.80;;;;;4.20;95288.00;;;;5071681;28;20254;-56
2023/10/18 06:45:17;;;;;;;3.37;2.03;;;;;4.30;95279.00;;;;5070802;28;20218;-57
2023/10/18 06:47:45;;;;;;;1.70;1.60;;;;;4.40;95279.00;;;;5070300;28;20207;-56
2023/10/18 06:50:14;;;;;;;2.63;2.43;;;;;4.40;95295.00;;;;5069673;28;20230;-56
2023/10/18 06:52:52;;;;;;;1.83;1.73;;;;;4.20;95278.00;;;;5071743;28;20223;-56
2023/10/18 06:55:35;;;;;;;1.17;1.17;;;;;4.20;95270.00;;;;5070800;28;20187;-56
2023/10/18 06:58:11;;;;;;;1.63;1.40;;;;;4.40;95266.00;;;;5071492;28;20195;-56
2023/10/18 07:00:43;;;;;;;2.17;2.07;;;;;4.50;95267.00;;;;5070618;28;20274;-56
2023/10/18 07:03:16;;;;;;;2.27;1.93;;;;;4.50;95258.00;;;;5070876;28;20219;-56
2023/10/18 07:05:46;;;;;;;1.87;1.77;;;;;4.60;95249.00;;;;5070865;28;20215;-56
2023/10/18 07:08:25;;;;;;;1.97;1.87;;;;;4.70;95256.00;;;;5070671;28;20646;-56
2023/10/18 07:10:56;;;;;;;1.77;1.67;;;;;4.50;95256.00;;;;5067241;28;20203;-56
2023/10/18 07:13:34;;;;;;;4.17;1.90;;;;;4.60;95243.00;;;;5071388;28;20300;-56
2023/10/18 07:16:06;;;;;;;1.70;1.60;;;;;4.80;95246.00;;;;5070932;28;20195;-56
2023/10/18 07:18:35;;;;;;;2.30;2.10;;;;;4.90;95239.00;;;;5070964;28;20185;-56
2023/10/18 07:21:07;;;;;;;2.23;2.07;;;;;4.70;95259.00;;;;5071113;28;20203;-56
2023/10/18 07:23:37;;;;;;;1.33;1.27;;;;;4.60;95274.00;;;;5071489;28;20520;-56
2023/10/18 07:26:07;;;;;;;1.90;1.80;;;;;4.60;95263.00;;;;5071052;28;20210;-56
2023/10/18 07:28:36;;;;;;;2.70;2.27;;;;;4.90;95263.00;;;;5067495;28;20212;-56
2023/10/18 07:31:08;;;;;;;2.97;2.67;;;;;5.10;95276.00;;;;5072555;28;20206;-56
2023/10/18 07:33:40;;;;;;;2.37;2.13;;;;;5.20;95273.00;;;;5073787;28;20542;-56
2023/10/18 07:36:09;;;;;;;2.03;1.93;;;;;5.60;95266.00;;;;5073143;28;20703;-56
2023/10/18 07:38:39;;;;;;;2.57;1.60;;;;;5.60;95270.00;;;;5074933;28;20191;-56
2023/10/18 07:41:08;;;;;;;1.83;1.73;;;;;5.80;95266.00;;;;5074066;28;20195;-56
2023/10/18 07:43:37;;;;;;;1.33;1.33;;;;;6.10;95264.00;;;;5074844;28;20193;-56
2023/10/18 07:46:10;;;;;;;2.00;1.90;;;;;6.20;95258.00;;;;5073631;28;20830;-56
2023/10/18 07:48:46;;;;;;;1.33;1.33;;;;;6.50;95255.00;;;;5074796;28;20238;-56
2023/10/18 07:51:23;;;;;;;2.90;2.50;;;;;6.80;95264.00;;;;5073939;28;20221;-56
2023/10/18 07:53:53;;;;;;;2.63;2.43;;;;;7.00;95253.00;;;;5070420;28;20245;-56
2023/10/18 07:56:26;;;;;;;1.90;1.80;;;;;7.20;95250.00;;;;5074252;28;20195;-56
2023/10/18 07:58:55;;;;;;;1.90;1.80;;;;;7.30;95250.00;;;;5073039;28;20602;-57
2023/10/18 08:04:09;;;;;;;2.40;2.10;;;;;7.50;95248.00;;;;5073773;28;20274;-56
2023/10/18 08:06:39;;;;;;;2.00;1.87;;;;;7.60;95237.00;;;;5072777;28;20195;-57
2023/10/18 08:09:09;;;;;;;7.70;3.03;;;;;7.80;95244.00;;;;5073717;28;20570;-56
2023/10/18 08:11:37;;;;;;;2.03;1.93;;;;;7.90;95233.00;;;;5073856;28;20219;-56
2023/10/18 08:14:16;;;;;;;3.47;3.13;;;;;8.00;95237.00;;;;5073815;28;20670;-56
2023/10/18 08:16:55;;;;;;;2.07;1.87;;;;;8.30;95241.00;;;;5073991;28;20192;-56
2023/10/18 08:19:26;;;;;;;3.17;2.33;;;;;8.30;95225.00;;;;5073775;28;20535;-56
2023/10/18 08:22:21;;;;;;;1.83;1.73;;;;;8.50;95223.00;;;;5072226;28;20681;-56
2023/10/18 08:24:50;;;;;;;1.57;1.53;;;;;8.70;95214.00;;;;5072749;28;20346;-56
2023/10/18 08:27:18;;;;;;;3.03;2.73;;;;;8.80;95218.00;;;;5072753;28;20667;-56
2023/10/18 08:29:52;;;;;;;1.33;1.30;;;;;9.00;95208.00;;;;5071477;28;20221;-56
2023/10/18 08:32:29;;;;;;;1.53;1.43;;;;;9.10;95203.00;;;;5072399;28;20261;-56
2023/10/18 08:35:06;;;;;;;1.50;1.40;;;;;9.00;95208.00;;;;5073264;28;20643;-56
2023/10/18 08:37:36;;;;;;;1.43;1.40;;;;;8.80;95203.00;;;;5072911;28;20191;-57
2023/10/18 08:40:15;;;;;;;2.03;1.87;;;;;8.80;95206.00;;;;5073627;28;20191;-57
2023/10/18 08:42:50;;;;;;;2.20;2.10;;;;;9.00;95196.00;;;;5072131;28;20223;-56
2023/10/18 08:45:23;;;;;;;2.00;1.90;;;;;9.00;95141.00;;;;5068596;28;20262;-56
2023/10/18 08:47:57;;;;;;;2.77;2.43;;;;;9.10;95192.00;;;;5068673;28;20198;-56
2023/10/18 08:50:32;;;;;;;1.40;1.40;;;;;9.20;95189.00;;;;5071764;28;20210;-57
2023/10/18 08:53:00;;;;;;;1.40;1.33;;;;;9.20;95180.00;;;;5072224;28;20226;-56
2023/10/18 08:58:12;;;;;;;1.83;1.73;;;;;9.30;95181.00;;;;5072774;28;20199;-56
2023/10/18 09:03:27;;;;;;;2.03;1.93;;;;;9.40;95190.00;;;;5072599;28;20580;-56
2023/10/18 09:06:03;;;;;;;1.50;1.50;;;;;9.60;95179.00;;;;5072747;28;20206;-56
2023/10/18 09:08:37;;;;;;;1.80;1.70;;;;;9.70;95189.00;;;;5071332;28;20205;-56
2023/10/18 09:11:09;;;;;;;3.00;2.60;;;;;10.00;95194.00;;;;5072038;28;20203;-56
2023/10/18 09:13:41;;;;;;;2.27;2.13;;;;;9.90;95205.00;;;;5071149;28;20196;-57
2023/10/18 09:16:19;;;;;;;1.80;1.70;;;;;9.70;95192.00;;;;5071255;28;20693;-56
2023/10/18 09:18:48;;;;;;;2.93;2.20;;;;;9.80;95185.00;;;;5072105;28;20199;-56
2023/10/18 09:21:18;;;;;;;1.97;1.87;;;;;9.90;95179.00;;;;5071686;28;20217;-56
2023/10/18 09:23:49;;;;;;;4.77;2.70;;;;;10.10;95163.00;;;;5071776;28;20188;-56
2023/10/18 09:26:26;;;;;;;1.63;1.53;;;;;10.40;95171.00;;;;5071513;28;20241;-57
2023/10/18 09:28:59;;;;;;;2.07;1.97;;;;;10.80;95162.00;;;;5072163;28;20195;-56
2023/10/18 09:31:27;;;;;;;2.13;1.90;;;;;11.00;95157.00;;;;5070507;28;20220;-56
2023/10/18 09:33:56;;;;;;;2.30;2.13;;;;;11.30;95157.00;;;;5071670;28;20562;-57
2023/10/18 09:36:24;;;;;;;2.60;2.40;;;;;11.10;95156.00;;;;5071121;28;20210;-57
2023/10/18 09:38:53;;;;;;;1.90;1.80;;;;;11.20;95152.00;;;;5072587;28;20275;-57
2023/10/18 09:41:22;;;;;;;2.33;1.77;;;;;11.60;95144.00;;;;5071298;28;20241;-57
2023/10/18 09:43:50;;;;;;;2.87;1.97;;;;;11.70;95146.00;;;;5071768;28;20191;-57
2023/10/18 09:46:18;;;;;;;1.33;1.23;;;;;11.70;95145.00;;;;5070801;28;20199;-56
2023/10/18 09:48:46;;;;;;;2.57;1.73;;;;;11.90;95136.00;;;;5069104;28;20195;-57
2023/10/18 09:51:15;;;;;;;1.13;1.13;;;;;12.10;95139.00;;;;5071905;28;20242;-57
2023/10/18 09:53:48;;;;;;;3.23;1.70;;;;;12.30;95129.00;;;;5071618;28;20196;-57
2023/10/18 09:56:24;;;;;;;1.63;1.57;;;;;12.60;95131.00;;;;5070120;28;20253;-57
2023/10/18 09:59:04;;;;;;;2.60;1.70;;;;;12.90;95124.00;;;;5071171;28;20279;-57
2023/10/18 10:01:59;;;;;;;2.20;2.00;;;;;13.20;95129.00;;;;5070674;28;20227;-57
2023/10/18 10:04:22;;;;;;;1.40;1.40;;;;;13.60;95127.00;;;;5070629;28;20257;-58
2023/10/18 10:06:54;;;;;;;1.30;1.30;;;;;13.70;95117.00;;;;5071750;28;20191;-56
2023/10/18 10:09:29;;;;;;;3.30;1.57;;;;;14.20;95116.00;;;;5066786;28;20203;-57
2023/10/18 10:12:00;;;;;;;1.30;1.30;;;;;14.00;95119.00;;;;5071512;28;20225;-57
2023/10/18 10:14:30;;;;;;;0.90;0.90;;;;;13.80;95104.00;;;;5071365;28;20198;-57
2023/10/18 10:17:05;;;;;;;2.10;2.00;;;;;13.90;95112.00;;;;5068029;28;20191;-57
2023/10/18 10:19:37;;;;;;;1.17;1.17;;;;;13.70;95110.00;;;;5071047;28;20202;-58
2023/10/18 10:22:06;;;;;;;2.03;1.90;;;;;13.80;95103.00;;;;5070670;28;20223;-57
2023/10/18 10:24:35;;;;;;;2.13;1.87;;;;;13.90;95096.00;;;;5071214;28;20218;-57
2023/10/18 10:27:41;;;;;;;1.73;1.63;;;;;14.10;95096.00;;;;5071330;28;20192;-54
2023/10/18 10:30:19;;;;;;;1.80;1.70;;;;;14.40;95099.00;;;;5071531;28;20215;-55
2023/10/18 10:32:47;;;;;;;0.93;0.93;;;;;14.40;95104.00;;;;5071431;28;20210;-55
2023/10/18 10:35:16;;;;;;;3.73;1.37;;;;;14.30;95099.00;;;;5071632;28;20199;-59
2023/10/18 10:37:47;;;;;;;0.87;0.87;;;;;14.20;95084.00;;;;5070822;28;20203;-60
2023/10/18 10:40:20;;;;;;;3.80;2.47;;;;;14.40;95085.00;;;;5071350;28;20200;-59
2023/10/18 10:43:02;;;;;;;1.10;1.10;;;;;14.30;95092.00;;;;5070931;28;20562;-60
2023/10/18 10:45:35;;;;;;;1.43;1.33;;;;;14.40;95091.00;;;;5071590;28;20266;-61
2023/10/18 10:48:31;;;;;;;1.50;1.40;;;;;14.10;95084.00;;;;5066586;28;20195;-57
2023/10/18 10:51:11;;;;;;;1.70;1.43;;;;;14.10;95083.00;;;;5057385;28;20231;-57
2023/10/18 10:53:50;;;;;;;1.13;1.13;;;;;13.90;95076.00;;;;5070642;28;20635;-56
2023/10/18 10:56:39;;;;;;;1.10;1.10;;;;;13.80;95072.00;;;;5071308;28;20222;-56
2023/10/18 10:59:15;;;;;;;1.00;1.00;;;;;13.60;95081.00;;;;5067048;28;20194;-56
2023/10/18 11:02:06;;;;;;;1.10;1.07;;;;;13.70;95074.00;;;;5070921;28;20215;-56
2023/10/18 11:04:49;;;;;;;1.87;1.40;;;;;13.50;95075.00;;;;5070410;28;20202;-56
2023/10/18 11:07:21;;;;;;;1.20;1.17;;;;;13.50;95062.00;;;;5071374;28;20264;-56
2023/10/18 11:09:50;;;;;;;1.00;1.00;;;;;13.60;95063.00;;;;5074844;28;20215;-57
2023/10/18 11:12:19;;;;;;;1.00;1.00;;;;;13.70;95056.00;;;;5074441;28;20250;-56
2023/10/18 11:14:50;;;;;;;1.10;1.10;;;;;13.70;95060.00;;;;5074151;28;20625;-56
2023/10/18 11:17:18;;;;;;;1.17;1.17;;;;;13.70;95062.00;;;;5074414;28;20562;-56
2023/10/18 11:19:51;;;;;;;1.33;1.10;;;;;13.60;95057.00;;;;5074666;28;20191;-56
2023/10/18 11:22:21;;;;;;;0.93;0.93;;;;;13.50;95055.00;;;;5073764;28;20215;-56
2023/10/18 11:24:50;;;;;;;1.37;1.33;;;;;13.40;95051.00;;;;5074400;28;20191;-56
2023/10/18 11:27:18;;;;;;;1.77;1.40;;;;;13.30;95056.00;;;;5070386;28;20203;-57
2023/10/18 11:29:52;;;;;;;1.10;1.10;;;;;13.40;95042.00;;;;5072359;28;20320;-56
2023/10/18 11:32:20;;;;;;;1.97;1.63;;;;;13.40;95038.00;;;;5074681;28;20242;-56
2023/10/18 11:34:51;;;;;;;0.90;0.90;;;;;13.40;95040.00;;;;5070522;28;20204;-56
2023/10/18 11:37:34;;;;;;;1.57;1.47;;;;;13.60;95033.00;;;;5075645;28;20184;-56
2023/10/18 11:40:14;;;;;;;1.00;1.00;;;;;13.80;95032.00;;;;5074934;28;20187;-56
2023/10/18 11:42:54;;;;;;;1.27;1.27;;;;;13.90;95025.00;;;;5075382;28;20215;-56
2023/10/18 11:45:27;;;;;;;0.80;0.80;;;;;14.00;95027.00;;;;5074509;28;20682;-56
2023/10/18 11:47:55;;;;;;;0.80;0.80;;;;;13.90;95017.00;;;;5073649;28;20195;-56
2023/10/18 11:50:23;;;;;;;1.27;1.20;;;;;13.70;95009.00;;;;5072114;28;20260;-56
2023/10/18 11:52:52;;;;;;;1.47;1.37;;;;;13.60;95010.00;;;;5073997;28;20269;-56
2023/10/18 11:55:20;;;;;;;1.17;1.17;;;;;13.60;95004.00;;;;5073879;28;20282;-57
2023/10/18 11:57:48;;;;;;;1.57;1.47;;;;;13.70;94997.00;;;;5074003;28;20211;-56
2023/10/18 12:00:28;;;;;;;1.47;1.13;;;;;13.60;94976.00;;;;5073935;28;20279;-55
2023/10/18 12:02:57;;;;;;;0.73;0.73;;;;;13.60;94973.00;;;;5073806;28;20234;-55
2023/10/18 12:05:27;;;;;;;1.80;1.27;;;;;13.50;94973.00;;;;5074063;28;20199;-55
2023/10/18 12:07:57;;;;;;;0.70;0.70;;;;;13.60;94974.00;;;;5074625;28;20191;-56
2023/10/18 12:10:34;;;;;;;1.00;1.00;;;;;13.50;94981.00;;;;5072485;28;20729;-56
2023/10/18 12:13:05;;;;;;;1.37;0.83;;;;;13.50;94980.00;;;;5073798;28;20729;-57
2023/10/18 12:15:33;;;;;;;1.13;1.13;;;;;13.40;94987.00;;;;5073871;28;20555;-56
2023/10/18 12:18:04;;;;;;;0.77;0.77;;;;;13.60;94987.00;;;;5072004;28;20524;-56
2023/10/18 12:20:43;;;;;;;3.13;1.40;;;;;13.70;94981.00;;;;5072936;28;20184;-56
2023/10/18 12:23:13;;;;;;;1.27;1.17;;;;;13.50;94982.00;;;;5073585;28;20219;-56
2023/10/18 12:25:42;;;;;;;1.20;1.20;;;;;13.70;94987.00;;;;5073443;28;20191;-56
2023/10/18 12:28:13;;;;;;;0.70;0.70;;;;;13.80;94989.00;;;;5068891;28;20195;-56
2023/10/18 12:30:43;;;;;;;1.07;1.07;;;;;13.60;94976.00;;;;5073177;28;20622;-56
2023/10/18 12:33:19;;;;;;;0.87;0.87;;;;;13.50;94971.00;;;;5073647;28;20211;-55
2023/10/18 12:35:48;;;;;;;0.83;0.83;;;;;13.50;94968.00;;;;5073828;28;20179;-55
2023/10/18 12:38:21;;;;;;;1.00;1.00;;;;;13.40;94978.00;;;;5072430;28;20203;-55
2023/10/18 12:40:58;;;;;;;0.90;0.90;;;;;13.50;94959.00;;;;5073491;28;20195;-56
2023/10/18 12:43:26;;;;;;;1.20;1.20;;;;;13.50;94966.00;;;;5073520;28;20221;-56
2023/10/18 12:45:54;;;;;;;1.87;1.67;;;;;13.60;94960.00;;;;5072172;28;20202;-56
2023/10/18 12:48:23;;;;;;;0.90;0.90;;;;;13.60;94947.00;;;;5073603;28;20305;-56
2023/10/18 12:50:52;;;;;;;0.60;0.60;;;;;13.50;94941.00;;;;5073441;28;20219;-56
2023/10/18 12:53:38;;;;;;;1.20;1.10;;;;;13.50;94929.00;;;;5067755;28;20226;-56
2023/10/18 12:56:31;;;;;;;0.93;0.93;;;;;13.60;94936.00;;;;5072981;28;20595;-58
2023/10/18 12:58:58;;;;;;;0.97;0.97;;;;;13.80;94928.00;;;;5071867;28;20233;-56